createdAt,value
2018-12-18T00:01:35.066Z,114.87
2018-12-18T00:04:10.150Z,99.67
2018-12-18T00:06:47.692Z,93.20
2018-12-18T00:09:18.822Z,96.37
2018-12-18T00:11:50.753Z,94.40
2018-12-18T00:14:21.843Z,100.33
2018-12-18T00:16:55.002Z,90.13
2018-12-18T00:19:26.260Z,83.27
2018-12-18T00:21:57.974Z,92.60
2018-12-18T00:24:29.206Z,82.33
2018-12-18T00:27:00.531Z,75.53
2018-12-18T00:29:35.287Z,76.13
2018-12-18T00:32:07.535Z,63.90
2018-12-18T00:34:38.453Z,72.13
2018-12-18T00:37:11.002Z,65.63
2018-12-18T00:39:42.857Z,65.57
2018-12-18T00:42:14.264Z,77.40
2018-12-18T00:44:48.285Z,72.97
2018-12-18T00:47:19.611Z,59.83
2018-12-18T00:49:50.423Z,59.07
2018-12-18T00:52:21.171Z,59.93
2018-12-18T00:54:52.032Z,65.77
2018-12-18T00:57:22.766Z,54.90
2018-12-18T00:59:53.914Z,59.97
2018-12-18T01:02:24.720Z,61.13
2018-12-18T01:04:55.652Z,59.07
2018-12-18T01:07:26.369Z,54.13
2018-12-18T01:09:57.089Z,53.67
2018-12-18T01:12:27.896Z,55.07
2018-12-18T01:14:59.091Z,50.80
2018-12-18T01:17:29.783Z,52.13
2018-12-18T01:20:03.367Z,48.27
2018-12-18T01:22:34.405Z,50.37
2018-12-18T01:25:08.673Z,44.70
2018-12-18T01:27:39.644Z,53.70
2018-12-18T01:30:10.422Z,49.53
2018-12-18T01:32:41.156Z,49.60
2018-12-18T01:35:12.025Z,50.87
2018-12-18T01:37:42.786Z,51.13
2018-12-18T01:40:14.081Z,49.20
2018-12-18T01:42:44.849Z,48.67
2018-12-18T01:45:16.855Z,50.33
2018-12-18T01:47:49.914Z,53.83
2018-12-18T01:50:33.160Z,49.13
2018-12-18T01:53:05.344Z,44.83
2018-12-18T01:55:37.371Z,37.70
2018-12-18T01:58:07.982Z,37.80
2018-12-18T02:00:38.670Z,45.77
2018-12-18T02:03:09.547Z,35.17
2018-12-18T02:05:46.757Z,33.37
2018-12-18T02:08:17.474Z,39.17
2018-12-18T02:10:48.103Z,39.53
2018-12-18T02:13:18.825Z,35.93
2018-12-18T02:15:49.527Z,38.80
2018-12-18T02:18:20.211Z,39.23
2018-12-18T02:20:50.943Z,36.43
2018-12-18T02:23:21.767Z,34.07
2018-12-18T02:25:52.418Z,36.40
2018-12-18T02:28:23.190Z,46.37
2018-12-18T02:30:53.855Z,31.40
2018-12-18T02:33:24.555Z,30.10
2018-12-18T02:35:55.526Z,25.40
2018-12-18T02:38:26.265Z,23.20
2018-12-18T02:40:56.923Z,21.47
2018-12-18T02:43:27.626Z,29.27
2018-12-18T02:45:58.346Z,24.67
2018-12-18T02:48:29.195Z,29.63
2018-12-18T02:51:00.000Z,28.70
2018-12-18T02:53:30.690Z,22.83
2018-12-18T02:56:05.507Z,29.10
2018-12-18T02:58:36.186Z,26.97
2018-12-18T03:01:07.289Z,29.23
2018-12-18T03:03:38.131Z,28.27
2018-12-18T03:06:08.754Z,25.43
2018-12-18T03:08:39.471Z,23.83
2018-12-18T03:11:12.810Z,26.90
2018-12-18T03:13:43.468Z,22.30
2018-12-18T03:16:14.209Z,25.93
2018-12-18T03:18:44.966Z,32.17
2018-12-18T03:21:16.720Z,25.20
2018-12-18T03:23:47.391Z,25.33
2018-12-18T03:26:18.023Z,19.90
2018-12-18T03:28:48.987Z,24.20
2018-12-18T03:31:19.897Z,26.30
2018-12-18T03:33:50.511Z,22.27
2018-12-18T03:36:21.918Z,22.43
2018-12-18T03:38:52.685Z,21.83
2018-12-18T03:41:23.424Z,24.67
2018-12-18T03:43:54.164Z,20.53
2018-12-18T03:46:24.794Z,25.47
2018-12-18T03:48:55.512Z,23.73
2018-12-18T03:51:27.271Z,26.47
2018-12-18T03:53:58.001Z,23.23
2018-12-18T03:56:28.659Z,25.40
2018-12-18T03:58:59.323Z,24.60
2018-12-18T04:01:30.303Z,22.73
2018-12-18T04:04:01.007Z,21.73
2018-12-18T04:06:34.735Z,22.57
2018-12-18T04:09:07.664Z,21.50
2018-12-18T04:11:42.410Z,18.10
2018-12-18T04:14:14.953Z,25.30
2018-12-18T04:16:45.964Z,23.37
2018-12-18T04:19:16.575Z,22.60
2018-12-18T04:21:47.228Z,21.07
2018-12-18T04:24:17.904Z,21.40
2018-12-18T04:26:48.618Z,20.77
2018-12-18T04:29:19.240Z,19.27
2018-12-18T04:31:51.630Z,22.23
2018-12-18T04:34:22.301Z,21.07
2018-12-18T04:36:53.356Z,20.50
2018-12-18T04:39:24.006Z,20.10
2018-12-18T04:41:54.638Z,19.50
2018-12-18T04:44:25.819Z,21.50
2018-12-18T04:46:56.440Z,17.50
2018-12-18T04:49:27.655Z,18.97
2018-12-18T04:51:58.306Z,20.77
2018-12-18T04:54:31.235Z,16.80
2018-12-18T04:57:04.404Z,19.50
2018-12-18T04:59:35.104Z,15.70
2018-12-18T05:02:06.195Z,19.30
2018-12-18T05:04:37.057Z,14.77
2018-12-18T05:07:07.932Z,16.60
2018-12-18T05:09:38.641Z,16.93
2018-12-18T05:12:11.518Z,16.03
2018-12-18T05:14:42.254Z,19.53
2018-12-18T05:17:12.892Z,10.73
2018-12-18T05:19:43.655Z,11.37
2018-12-18T05:22:14.325Z,15.07
2018-12-18T05:24:45.382Z,9.70
2018-12-18T05:27:16.077Z,14.00
2018-12-18T05:29:46.731Z,11.20
2018-12-18T05:32:17.354Z,12.80
2018-12-18T05:34:48.220Z,6.23
2018-12-18T05:37:18.852Z,12.90
2018-12-18T05:39:49.568Z,6.67
2018-12-18T05:42:21.322Z,7.20
2018-12-18T05:44:51.957Z,10.87
2018-12-18T05:47:22.628Z,5.83
2018-12-18T05:49:53.215Z,6.73
2018-12-18T05:52:24.016Z,6.05
2018-12-18T05:54:54.666Z,6.28
2018-12-18T05:57:25.339Z,5.17
2018-12-18T05:59:56.023Z,3.50
2018-12-18T06:02:26.662Z,4.03
2018-12-18T06:05:02.995Z,5.10
2018-12-18T06:07:30.014Z,3.00
2018-12-18T06:10:00.698Z,6.03
2018-12-18T06:12:31.878Z,4.67
2018-12-18T06:15:03.047Z,5.60
2018-12-18T06:17:34.478Z,4.65
2018-12-18T06:20:05.451Z,5.60
2018-12-18T06:22:36.175Z,2.97
2018-12-18T06:25:07.016Z,2.60
2018-12-18T06:27:37.642Z,5.60
2018-12-18T06:30:08.521Z,5.05
2018-12-18T06:32:39.170Z,2.40
2018-12-18T06:35:10.616Z,4.00
2018-12-18T06:37:41.377Z,2.80
2018-12-18T06:40:12.130Z,4.70
2018-12-18T06:42:42.943Z,2.80
2018-12-18T06:45:13.696Z,5.43
2018-12-18T06:47:46.100Z,5.15
2018-12-18T06:50:16.742Z,3.87
2018-12-18T06:52:49.156Z,3.07
2018-12-18T06:55:20.459Z,3.98
2018-12-18T06:57:51.656Z,5.10
2018-12-18T07:00:22.328Z,6.12
2018-12-18T07:02:52.939Z,4.92
2018-12-18T07:05:23.805Z,5.37
2018-12-18T07:07:57.317Z,4.12
2018-12-18T07:10:27.212Z,3.83
2018-12-18T07:12:57.900Z,3.15
2018-12-18T07:15:30.427Z,4.03
2018-12-18T07:18:01.095Z,1.70
2018-12-18T07:20:33.399Z,4.97
2018-12-18T07:23:05.478Z,2.77
2018-12-18T07:25:36.108Z,4.10
2018-12-18T07:28:07.075Z,3.00
2018-12-18T07:30:37.975Z,2.45
2018-12-18T07:33:08.642Z,3.58
2018-12-18T07:35:39.246Z,2.10
2018-12-18T07:38:09.893Z,5.47
2018-12-18T07:40:40.630Z,3.85
2018-12-18T07:43:11.239Z,2.72
2018-12-18T07:45:41.902Z,3.47
2018-12-18T07:48:12.515Z,2.85
2018-12-18T07:50:43.629Z,4.70
2018-12-18T07:53:14.294Z,2.87
2018-12-18T07:55:44.894Z,3.87
2018-12-18T07:58:16.935Z,2.55
2018-12-18T08:00:54.344Z,3.77
2018-12-18T08:03:26.341Z,5.85
2018-12-18T08:05:56.949Z,5.62
2018-12-18T08:08:29.550Z,5.92
2018-12-18T08:11:00.304Z,2.87
2018-12-18T08:13:35.510Z,4.62
2018-12-18T08:16:06.193Z,4.50
2018-12-18T08:37:47.165Z,3.30
2018-12-18T08:40:18.236Z,4.47
2018-12-18T08:42:48.905Z,6.50
2018-12-18T08:45:19.644Z,9.75
2018-12-18T08:47:50.796Z,18.05
2018-12-18T08:50:22.910Z,28.52
2018-12-18T08:52:54.905Z,31.87
2018-12-18T08:55:25.558Z,16.52
2018-12-18T08:57:56.283Z,13.55
2018-12-18T09:00:26.993Z,6.42
2018-12-18T09:02:58.226Z,5.80
2018-12-18T09:05:28.950Z,4.92
2018-12-18T09:07:59.614Z,4.83
2018-12-18T09:10:30.583Z,5.62
2018-12-18T09:13:03.271Z,8.33
2018-12-18T09:15:38.989Z,8.53
2018-12-18T09:18:11.744Z,15.20
2018-12-18T09:20:42.443Z,13.28
2018-12-18T09:23:13.131Z,6.90
2018-12-18T09:25:43.886Z,4.33
2018-12-18T09:28:14.580Z,12.15
2018-12-18T09:30:45.315Z,14.10
2018-12-18T09:33:15.987Z,10.90
2018-12-18T09:35:49.708Z,8.25
2018-12-18T09:38:24.255Z,6.80
2018-12-18T09:40:59.961Z,1.45
2018-12-18T09:43:35.696Z,3.75
2018-12-18T09:46:08.051Z,5.03
2018-12-18T09:48:38.686Z,2.42
2018-12-18T09:51:09.544Z,2.77
2018-12-18T09:53:41.899Z,2.58
2018-12-18T09:56:51.751Z,6.45
2018-12-18T09:59:25.691Z,3.45
2018-12-18T10:01:56.716Z,3.35
2018-12-18T10:04:27.817Z,4.00
2018-12-18T10:07:00.146Z,3.02
2018-12-18T10:09:35.456Z,3.08
2018-12-18T10:12:08.145Z,8.53
2018-12-18T10:14:41.562Z,7.37
2018-12-18T10:17:13.527Z,4.25
2018-12-18T10:19:45.551Z,4.20
2018-12-18T10:22:16.254Z,4.55
2018-12-18T10:24:46.908Z,3.67
2018-12-18T10:27:17.523Z,4.37
2018-12-18T10:29:48.215Z,2.02
2018-12-18T10:32:18.835Z,4.12
2018-12-18T10:34:49.658Z,10.32
2018-12-18T10:37:20.314Z,6.75
2018-12-18T10:39:51.032Z,4.22
2018-12-18T10:42:21.820Z,3.72
2018-12-18T10:44:52.511Z,4.55
2018-12-18T10:47:23.239Z,10.20
2018-12-18T10:49:54.009Z,5.70
2018-12-18T10:52:24.602Z,7.45
2018-12-18T10:54:55.432Z,8.40
2018-12-18T10:57:26.191Z,5.15
2018-12-18T10:59:56.859Z,4.95
2018-12-18T11:02:27.517Z,2.98
2018-12-18T11:04:58.184Z,10.95
2018-12-18T11:07:28.774Z,6.28
2018-12-18T11:09:59.762Z,6.50
2018-12-18T11:12:36.959Z,5.37
2018-12-18T11:15:09.087Z,7.12
2018-12-18T11:17:39.832Z,6.40
2018-12-18T11:20:10.499Z,8.75
2018-12-18T11:22:41.288Z,8.38
2018-12-18T11:25:12.092Z,5.78
2018-12-18T11:27:42.728Z,9.28
2018-12-18T11:30:13.594Z,10.50
2018-12-18T11:32:44.186Z,8.25
2018-12-18T11:35:14.916Z,5.97
2018-12-18T11:37:45.555Z,8.53
2018-12-18T11:40:16.327Z,8.85
2018-12-18T11:42:46.965Z,5.75
2018-12-18T11:45:17.801Z,13.10
2018-12-18T11:47:48.451Z,13.75
2018-12-18T11:50:19.134Z,11.55
2018-12-18T11:52:49.774Z,7.33
2018-12-18T11:55:20.463Z,10.80
2018-12-18T11:57:51.606Z,52.35
2018-12-18T12:00:22.296Z,29.55
2018-12-18T12:02:53.075Z,57.73
2018-12-18T12:05:25.755Z,13.55
2018-12-18T12:07:56.477Z,10.58
2018-12-18T12:10:27.735Z,8.93
2018-12-18T12:12:58.453Z,57.80
2018-12-18T12:15:29.191Z,210.88
2018-12-18T12:18:00.405Z,55.08
2018-12-18T12:20:35.705Z,8.13
2018-12-18T12:23:07.109Z,9.08
2018-12-18T12:25:38.570Z,9.70
2018-12-18T12:28:09.216Z,18.52
2018-12-18T12:30:39.847Z,72.40
2018-12-18T12:33:10.535Z,51.45
2018-12-18T12:35:41.191Z,7.10
2018-12-18T12:38:12.343Z,10.98
2018-12-18T12:40:44.855Z,6.17
2018-12-18T12:43:15.649Z,14.35
2018-12-18T12:45:46.428Z,127.00
2018-12-18T12:48:18.679Z,26.10
2018-12-18T12:50:49.336Z,4.05
2018-12-18T12:53:20.257Z,5.15
2018-12-18T12:55:51.097Z,4.33
2018-12-18T12:58:21.766Z,9.98
2018-12-18T13:00:53.563Z,55.33
2018-12-18T13:03:24.248Z,18.45
2018-12-18T13:05:54.908Z,6.70
2018-12-18T13:08:25.595Z,5.42
2018-12-18T13:10:56.294Z,2.10
2018-12-18T13:13:26.952Z,1.45
2018-12-18T13:15:58.601Z,34.10
2018-12-18T13:18:29.217Z,4.45
2018-12-18T13:20:59.899Z,2.50
2018-12-18T13:23:30.583Z,2.95
2018-12-18T13:26:03.876Z,5.12
2018-12-18T13:28:35.730Z,22.42
2018-12-18T13:31:08.743Z,38.38
2018-12-18T13:33:39.632Z,40.35
2018-12-18T13:36:10.294Z,48.05
2018-12-18T13:38:41.209Z,26.57
2018-12-18T13:41:11.807Z,6.53
2018-12-18T13:43:42.496Z,5.60
2018-12-18T13:46:15.167Z,6.40
2018-12-18T13:48:45.861Z,31.50
2018-12-18T13:51:17.008Z,7.45
2018-12-18T13:53:47.655Z,23.02
2018-12-18T13:56:18.745Z,10.13
2018-12-18T13:58:49.529Z,2.12
2018-12-18T14:01:20.205Z,3.35
2018-12-18T14:03:50.853Z,2.58
2018-12-18T14:06:21.913Z,3.70
2018-12-18T14:08:52.641Z,2.85
2018-12-18T14:11:23.279Z,5.92
2018-12-18T14:13:53.947Z,2.90
2018-12-18T14:16:24.607Z,5.45
2018-12-18T14:18:55.334Z,3.95
2018-12-18T14:21:26.067Z,6.90
2018-12-18T14:23:57.562Z,4.90
2018-12-18T14:26:28.249Z,6.00
2018-12-18T14:28:58.901Z,4.30
2018-12-18T14:31:29.700Z,7.28
2018-12-18T14:34:00.499Z,65.45
2018-12-18T14:36:31.695Z,22.25
2018-12-18T14:39:06.689Z,15.28
2018-12-18T14:41:39.339Z,6.12
2018-12-18T14:44:09.999Z,11.45
2018-12-18T14:46:40.661Z,12.13
2018-12-18T14:49:11.368Z,160.20
2018-12-18T14:51:42.155Z,83.97
2018-12-18T14:54:13.067Z,14.18
2018-12-18T14:56:43.726Z,6.97
2018-12-18T14:59:14.426Z,12.13
2018-12-18T15:01:45.136Z,11.35
2018-12-18T15:04:16.144Z,11.35
2018-12-18T15:06:47.738Z,160.97
2018-12-18T15:09:18.367Z,67.40
2018-12-18T15:11:49.026Z,18.27
2018-12-18T15:14:19.727Z,19.90
2018-12-18T15:16:50.615Z,8.00
2018-12-18T15:19:21.336Z,39.13
2018-12-18T15:21:52.071Z,76.85
2018-12-18T15:24:23.082Z,119.93
2018-12-18T15:26:53.858Z,48.98
2018-12-18T15:29:24.818Z,15.30
2018-12-18T15:31:55.633Z,13.88
2018-12-18T15:34:27.519Z,10.05
2018-12-18T15:36:58.354Z,33.73
2018-12-18T15:39:29.398Z,29.48
2018-12-18T15:42:01.922Z,61.80
2018-12-18T15:44:34.962Z,16.20
2018-12-18T15:47:05.631Z,10.98
2018-12-18T15:49:36.284Z,11.50
2018-12-18T15:52:07.005Z,9.55
2018-12-18T15:54:38.879Z,8.70
2018-12-18T15:57:09.600Z,10.25
2018-12-18T15:59:40.232Z,13.65
2018-12-18T16:02:10.992Z,9.95
2018-12-18T16:04:41.743Z,15.00
2018-12-18T16:07:16.065Z,15.25
2018-12-18T16:09:45.330Z,17.67
2018-12-18T16:12:16.010Z,19.05
2018-12-18T16:14:46.677Z,15.68
2018-12-18T16:17:17.376Z,15.38
2018-12-18T16:19:48.165Z,10.80
2018-12-18T16:22:18.832Z,27.58
2018-12-18T16:24:49.921Z,57.83
2018-12-18T16:27:21.935Z,32.53
2018-12-18T16:29:52.608Z,18.45
2018-12-18T16:32:24.238Z,18.25
2018-12-18T16:34:54.904Z,24.55
2018-12-18T16:37:25.616Z,33.75
2018-12-18T16:39:56.442Z,27.42
2018-12-18T16:42:27.183Z,24.43
2018-12-18T16:44:57.907Z,20.45
2018-12-18T16:47:28.570Z,17.05
2018-12-18T16:49:59.303Z,18.92
2018-12-18T16:52:29.977Z,15.38
2018-12-18T16:55:03.312Z,21.90
2018-12-18T16:57:33.945Z,16.60
2018-12-18T17:00:05.459Z,21.68
2018-12-18T17:02:36.266Z,23.90
2018-12-18T17:05:08.495Z,20.72
2018-12-18T17:07:39.432Z,22.75
2018-12-18T17:10:10.265Z,22.10
2018-12-18T17:12:46.158Z,24.30
2018-12-18T17:15:17.901Z,18.15
2018-12-18T17:17:49.249Z,21.97
2018-12-18T17:20:20.611Z,13.85
2018-12-18T17:22:51.328Z,23.05
2018-12-18T17:25:22.118Z,23.73
2018-12-18T17:27:53.015Z,26.27
2018-12-18T17:30:23.990Z,17.23
2018-12-18T17:32:54.673Z,19.15
2018-12-18T17:35:25.847Z,28.95
2018-12-18T17:37:56.508Z,38.98
2018-12-18T17:40:27.122Z,33.75
2018-12-18T17:42:58.295Z,31.12
2018-12-18T17:45:29.011Z,34.95
2018-12-18T17:47:59.748Z,29.00
2018-12-18T17:50:31.036Z,27.90
2018-12-18T17:53:03.881Z,35.17
2018-12-18T17:55:34.847Z,28.98
2018-12-18T17:58:05.692Z,35.20
2018-12-18T18:00:36.342Z,40.65
2018-12-18T18:03:07.041Z,34.35
2018-12-18T18:05:37.727Z,42.20
2018-12-18T18:08:08.388Z,44.83
2018-12-18T18:10:39.102Z,55.83
2018-12-18T18:13:09.721Z,85.60
2018-12-18T18:15:41.108Z,126.10
2018-12-18T18:18:11.772Z,128.55
2018-12-18T18:20:43.225Z,147.45
2018-12-18T18:23:13.928Z,78.37
2018-12-18T18:25:45.623Z,197.90
2018-12-18T18:28:16.330Z,215.20
2018-12-18T18:30:47.399Z,201.52
2018-12-18T18:33:18.051Z,193.68
2018-12-18T18:35:48.743Z,184.77
2018-12-18T18:38:19.529Z,171.57
2018-12-18T18:40:50.159Z,164.00
2018-12-18T18:43:21.267Z,133.15
2018-12-18T18:45:52.043Z,104.58
2018-12-18T18:48:22.679Z,116.20
2018-12-18T18:50:53.879Z,95.67
2018-12-18T18:53:24.951Z,92.60
2018-12-18T18:55:55.609Z,78.53
2018-12-18T18:58:26.367Z,75.57
2018-12-18T19:00:57.344Z,73.20
2018-12-18T19:03:27.986Z,66.42
2018-12-18T19:05:58.871Z,76.20
2018-12-18T19:08:29.509Z,76.43
2018-12-18T19:11:05.376Z,78.07
2018-12-18T19:13:36.248Z,80.30
2018-12-18T19:16:08.095Z,83.60
2018-12-18T19:18:39.203Z,91.43
2018-12-18T19:21:10.025Z,81.43
2018-12-18T19:23:40.819Z,80.07
2018-12-18T19:26:11.595Z,77.60
2018-12-18T19:28:42.756Z,82.62
2018-12-18T19:31:13.466Z,86.53
2018-12-18T19:33:44.590Z,92.00
2018-12-18T19:36:15.330Z,98.75
2018-12-18T19:38:46.000Z,95.87
2018-12-18T19:41:17.126Z,101.20
2018-12-18T19:43:48.255Z,146.77
2018-12-18T19:46:18.929Z,160.25
2018-12-18T19:48:49.540Z,116.00
2018-12-18T19:51:20.308Z,85.55
2018-12-18T19:53:51.010Z,165.87
2018-12-18T19:56:21.776Z,159.77
2018-12-18T19:58:52.423Z,97.42
2018-12-18T20:01:24.657Z,133.33
2018-12-18T20:03:55.359Z,132.50
2018-12-18T20:06:26.217Z,80.93
2018-12-18T20:08:56.988Z,90.62
2018-12-18T20:11:28.274Z,96.10
2018-12-18T20:13:59.036Z,133.10
2018-12-18T20:16:30.854Z,113.65
2018-12-18T20:19:05.338Z,97.00
2018-12-18T20:21:36.080Z,93.30
2018-12-18T20:24:06.881Z,92.53
2018-12-18T20:26:37.508Z,85.97
2018-12-18T20:29:08.234Z,95.47
2018-12-18T20:31:39.355Z,87.70
2018-12-18T20:34:10.111Z,102.37
2018-12-18T20:36:41.126Z,112.53
2018-12-18T20:39:11.922Z,103.02
2018-12-18T20:41:42.613Z,89.35
2018-12-18T20:44:13.250Z,80.65
2018-12-18T20:46:44.615Z,76.00
2018-12-18T20:49:15.672Z,84.87
2018-12-18T20:51:46.466Z,96.30
2018-12-18T20:54:17.300Z,106.97
2018-12-18T20:56:48.018Z,101.43
2018-12-18T20:59:18.888Z,100.73
2018-12-18T21:01:49.626Z,93.50
2018-12-18T21:04:20.406Z,91.73
2018-12-18T21:06:52.985Z,84.83
2018-12-18T21:09:23.988Z,86.30
2018-12-18T21:11:54.639Z,81.83
2018-12-18T21:14:25.438Z,79.87
2018-12-18T21:16:56.371Z,86.33
2018-12-18T21:19:27.283Z,87.25
2018-12-18T21:21:58.228Z,81.30
2018-12-18T21:24:29.315Z,64.80
2018-12-18T21:27:04.138Z,75.20
2018-12-18T21:29:35.383Z,71.67
2018-12-18T21:32:08.449Z,63.57
2018-12-18T21:34:39.525Z,67.07
2018-12-18T21:37:10.903Z,75.30
2018-12-18T21:39:43.925Z,81.33
2018-12-18T21:42:14.888Z,109.73
2018-12-18T21:44:46.443Z,103.07
2018-12-18T21:47:17.522Z,110.87
2018-12-18T21:49:48.382Z,108.13
2018-12-18T21:52:19.577Z,99.17
2018-12-18T21:54:50.341Z,99.40
2018-12-18T21:57:21.127Z,94.87
2018-12-18T21:59:52.479Z,101.23
2018-12-18T22:02:23.190Z,107.37
2018-12-18T22:04:54.538Z,90.03
2018-12-18T22:07:25.251Z,97.20
2018-12-18T22:09:56.063Z,95.17
2018-12-18T22:12:26.742Z,93.20
2018-12-18T22:14:57.407Z,81.60
2018-12-18T22:17:28.783Z,83.67
2018-12-18T22:19:59.503Z,100.00
2018-12-18T22:22:30.192Z,98.20
2018-12-18T22:25:02.379Z,90.00
2018-12-18T22:27:33.157Z,83.10
2018-12-18T22:30:08.955Z,79.33
2018-12-18T22:32:40.226Z,79.97
2018-12-18T22:35:11.022Z,88.10
2018-12-18T22:37:41.736Z,76.30
2018-12-18T22:40:12.457Z,92.07
2018-12-18T22:42:43.152Z,84.30
2018-12-18T22:45:14.667Z,68.67
2018-12-18T22:47:45.942Z,80.87
2018-12-18T22:50:21.336Z,78.97
2018-12-18T22:52:55.416Z,88.87
2018-12-18T22:55:26.222Z,104.90
2018-12-18T22:57:56.893Z,110.10
2018-12-18T23:00:32.938Z,112.43
2018-12-18T23:03:07.184Z,105.33
2018-12-18T23:05:37.868Z,92.50
2018-12-18T23:08:08.597Z,99.77
2018-12-18T23:10:39.398Z,83.80
2018-12-18T23:13:12.130Z,64.10
2018-12-18T23:15:42.881Z,78.53
2018-12-18T23:18:13.552Z,67.60
2018-12-18T23:20:44.348Z,73.27
2018-12-18T23:23:15.513Z,76.67
2018-12-18T23:25:46.244Z,73.83
2018-12-18T23:28:17.527Z,62.17
2018-12-18T23:30:51.413Z,70.30
2018-12-18T23:33:22.971Z,60.93
2018-12-18T23:35:54.204Z,57.10
2018-12-18T23:38:25.062Z,59.40
2018-12-18T23:40:55.808Z,72.30
2018-12-18T23:43:26.484Z,94.30
2018-12-18T23:45:57.567Z,92.77
2018-12-18T23:48:28.271Z,82.07
2018-12-18T23:50:58.932Z,79.23
2018-12-18T23:53:29.980Z,81.63
2018-12-18T23:56:04.283Z,91.97
2018-12-18T23:58:35.013Z,85.43
